Aviation Digital Data Service (ADDS)

Output produced by METARs form (0606 UTC 25 June 2018)
found at http://www.aviationweather.gov/adds/metars/
 
UBBB 250600Z 34017KT CAVOK 31/12 Q1012 R88/CLRD// NOSIG
TAF UBBB 250507Z 2506/2606 33018G28KT CAVOK TX34/2511Z TN20/2603Z 
     TEMPO 2506/2512 SCT030 SCT100 
     TEMPO 2512/2524 FEW050CB BKN100
       
UBBG 250600Z 33006KT 9999 SCT100 29/18 Q1014 R30/CLRD// NOSIG
TAF UBBG 250500Z 2506/2606 31008KT 9999 FEW040 SCT100 TX35/2512Z TN22/2602Z 
     TEMPO 2507/2509 VRB02KT 
     BECMG 2509/2511 11014KT 
     BECMG 2520/2522 VRB02KT
       
UBBL 250600Z VRB03KT 9999 NSC 32/12 Q1013 R33/CLRD// NOSIG RMK MT OP
TAF UBBL 250509Z 2506/2606 09006KT 9999 NSC TX32/2511Z TN18/2601Z 
     TEMPO 2506/2512 VRB04KT SCT030 
     TEMPO 2512/2521 FEW050CB BKN080
       
UBBN 250600Z 08004KT 9999 NSC 29/10 Q1013 R14R/CLRD// NOSIG RMK MT OP QFE685
TAF UBBN 250503Z 2506/2606 11010KT 9999 FEW050 SCT100 TX36/2512Z TN19/2602Z 
     TEMPO 2510/2520 14014KT
       
UBBQ 250600Z 33005KT 9999 NSC 29/14 Q1015 R16/CLRD// NOSIG RMK MT OP
TAF UBBQ 250508Z 2506/2606 12006KT 9999 NSC TX32/2511Z TN16/2602Z 
     TEMPO 2506/2512 SCT020 SCT080 
     TEMPO 2512/2524 FEW050CB BKN080
       
UBBY 250600Z 16006KT 9999 FEW100 28/18 Q1018 R33/////// NOSIG RMK MT OP
TAF UBBY 250500Z 2506/2515 VRB02KT 9999 NSC
       
UBEE 250600Z 15005KT CAVOK 30/17 Q1013 R30/CLRD// NOSIG
TAF UBEE 250542Z 2506/2515 14010KT CAVOK
       
UBBB 250600Z 34017KT CAVOK 31/12 Q1012 R88/CLRD// NOSIG
TAF UBBB 250507Z 2506/2606 33018G28KT CAVOK TX34/2511Z TN20/2603Z 
     TEMPO 2506/2512 SCT030 SCT100 
     TEMPO 2512/2524 FEW050CB BKN100
       
UBBG 250600Z 33006KT 9999 SCT100 29/18 Q1014 R30/CLRD// NOSIG
TAF UBBG 250500Z 2506/2606 31008KT 9999 FEW040 SCT100 TX35/2512Z TN22/2602Z 
     TEMPO 2507/2509 VRB02KT 
     BECMG 2509/2511 11014KT 
     BECMG 2520/2522 VRB02KT